Time;durP1;ratioP1;P1;durP2;ratioP2;P2;SDS_P1;SDS_P2;PMS_P1;PMS_P2;Temp;Humidity;BMP_temperature;BMP_pressure;BME280_temperature;BME280_humidity;BME280_pressure;Samples;Min_cycle;Max_cycle;Signal;HPM_P1;HPM_P2
2021/08/29 00:01:02;;;;;;;14.45;8.38;;;;;;;13.00;77.33;96959.35;1736012;82;25779;-85
2021/08/29 00:03:29;;;;;;;13.85;7.67;;;;;;;13.00;77.33;96955.29;1722546;82;25788;-80
2021/08/29 00:05:55;;;;;;;12.43;8.20;;;;;;;13.00;77.42;96958.00;1735572;82;27277;-86
2021/08/29 00:08:22;;;;;;;12.93;8.08;;;;;;;13.01;77.46;96952.87;1735904;82;25900;-86
2021/08/29 00:10:48;;;;;;;13.68;8.20;;;;;;;13.02;77.47;96953.17;1736015;82;25690;-86
2021/08/29 00:13:15;;;;;;;12.33;7.95;;;;;;;13.01;77.48;96952.87;1735692;82;25793;-86
2021/08/29 00:15:41;;;;;;;10.13;7.90;;;;;;;13.03;77.50;96958.89;1723131;83;25746;-85
2021/08/29 00:18:08;;;;;;;11.20;8.10;;;;;;;13.01;77.53;96954.23;1725472;82;28170;-80
2021/08/29 00:20:35;;;;;;;13.38;8.43;;;;;;;13.01;77.57;96959.66;1726119;82;25761;-84
2021/08/29 00:23:01;;;;;;;8.93;7.00;;;;;;;13.01;77.61;96951.52;1715159;82;25753;-85
2021/08/29 00:25:28;;;;;;;9.50;7.28;;;;;;;13.01;77.68;96956.94;1720578;82;25792;-84
2021/08/29 00:27:55;;;;;;;9.15;7.10;;;;;;;12.99;77.70;96950.41;1727256;82;25865;-80
2021/08/29 00:30:22;;;;;;;9.05;6.95;;;;;;;12.98;77.69;96949.28;1720995;82;27404;-84
2021/08/29 00:32:49;;;;;;;14.07;7.03;;;;;;;12.98;77.81;96950.11;1735846;82;25810;-84
2021/08/29 00:35:15;;;;;;;11.53;7.45;;;;;;;12.98;77.86;96950.63;1724084;82;25725;-83
2021/08/29 00:37:42;;;;;;;12.85;7.50;;;;;;;12.97;77.92;96947.63;1727431;82;26522;-83
2021/08/29 00:40:10;;;;;;;8.40;7.08;;;;;;;12.95;77.94;96944.33;1736084;82;25756;-84
2021/08/29 00:42:36;;;;;;;11.22;7.92;;;;;;;12.96;77.99;96946.80;1735587;82;27371;-84
2021/08/29 00:45:04;;;;;;;10.72;7.33;;;;;;;12.95;78.01;96939.73;1735863;82;25783;-85
2021/08/29 00:47:32;;;;;;;11.55;7.67;;;;;;;12.97;78.06;96947.63;1735927;82;26359;-85
2021/08/29 00:49:59;;;;;;;10.82;7.58;;;;;;;12.95;78.18;96944.33;1735020;82;25714;-85
2021/08/29 00:52:26;;;;;;;12.90;8.25;;;;;;;12.90;78.19;96940.17;1716001;82;25277;-86
2021/08/29 00:54:52;;;;;;;12.03;7.85;;;;;;;12.92;78.26;96944.83;1728583;82;27601;-86
2021/08/29 00:57:19;;;;;;;11.63;7.75;;;;;;;12.91;78.29;96946.71;1735678;82;25802;-84
2021/08/29 00:59:46;;;;;;;12.90;7.70;;;;;;;12.92;78.38;96940.77;1735403;82;25726;-85
2021/08/29 01:02:15;;;;;;;10.98;8.08;;;;;;;12.93;78.38;96938.32;1735769;82;25714;-83
2021/08/29 01:04:59;;;;;;;11.78;8.20;;;;;;;12.92;78.38;96931.28;1735937;82;25787;-84
2021/08/29 01:07:37;;;;;;;14.07;7.83;;;;;;;12.92;78.43;96926.66;1729982;82;28863;-85
2021/08/29 01:10:08;;;;;;;9.15;6.92;;;;;;;12.91;78.40;96924.22;1705931;82;26365;-84
2021/08/29 01:12:35;;;;;;;10.00;7.45;;;;;;;12.91;78.51;96925.04;1732463;82;26515;-84
2021/08/29 01:15:05;;;;;;;9.93;7.78;;;;;;;12.91;78.55;96918.27;1721534;82;25715;-85
2021/08/29 01:17:35;;;;;;;12.70;8.03;;;;;;;12.85;78.55;96925.15;1717975;82;26403;-84
2021/08/29 01:20:35;;;;;;;12.50;7.83;;;;;;;12.83;78.69;96925.38;1720595;83;27604;-83
2021/08/29 01:23:03;;;;;;;11.97;8.28;;;;;;;12.82;78.84;96921.02;1735515;82;25825;-83
2021/08/29 01:25:34;;;;;;;13.65;8.18;;;;;;;12.82;78.85;96921.55;1703906;84;25937;-83
2021/08/29 01:28:16;;;;;;;14.25;8.50;;;;;;;12.81;78.85;96918.02;1723111;82;25699;-84
2021/08/29 01:30:47;;;;;;;9.20;7.87;;;;;;;12.82;78.86;96913.42;1730451;82;25427;-84
2021/08/29 01:33:15;;;;;;;10.28;7.10;;;;;;;12.82;78.90;96905.30;1706503;82;27368;-84
2021/08/29 01:35:43;;;;;;;11.05;6.97;;;;;;;12.81;78.94;96910.42;1740853;82;26366;-84
2021/08/29 01:38:11;;;;;;;8.90;7.42;;;;;;;12.81;78.98;96911.25;1743808;82;25752;-84
2021/08/29 01:40:38;;;;;;;11.45;7.10;;;;;;;12.81;79.01;96909.06;1737598;81;25772;-84
2021/08/29 01:43:05;;;;;;;13.65;8.05;;;;;;;12.81;79.08;96907.71;1743666;82;25946;-85
2021/08/29 01:45:33;;;;;;;9.43;7.35;;;;;;;12.80;79.06;96906.09;1735554;81;27588;-85
2021/08/29 01:48:01;;;;;;;8.68;6.70;;;;;;;12.79;79.14;96905.80;1743460;81;25804;-85
2021/08/29 01:50:28;;;;;;;14.33;7.15;;;;;;;12.79;79.08;96905.80;1734010;82;25765;-83
2021/08/29 01:52:57;;;;;;;10.55;7.10;;;;;;;12.79;79.07;96904.45;1729777;80;25813;-83
2021/08/29 01:55:24;;;;;;;10.48;7.08;;;;;;;12.79;79.08;96899.85;1737825;80;25730;-85
2021/08/29 01:57:51;;;;;;;14.38;8.33;;;;;;;12.80;79.06;96896.61;1726659;82;26845;-85
2021/08/29 02:00:19;;;;;;;9.55;7.35;;;;;;;12.78;79.07;96893.31;1741440;82;25853;-85
2021/08/29 02:02:45;;;;;;;10.08;7.08;;;;;;;12.78;79.10;96898.20;1714332;82;25795;-85
2021/08/29 02:05:12;;;;;;;11.03;7.22;;;;;;;12.76;79.11;96900.84;1751401;81;25795;-83
2021/08/29 02:07:44;;;;;;;11.93;7.40;;;;;;;12.74;79.11;96894.31;1735695;82;25699;-84
2021/08/29 02:10:15;;;;;;;12.40;8.43;;;;;;;12.74;79.17;96900.26;1734621;82;27333;-85
2021/08/29 02:13:10;;;;;;;12.43;7.90;;;;;;;12.73;79.19;96898.61;1716537;82;25918;-85
2021/08/29 02:15:47;;;;;;;9.93;7.22;;;;;;;12.71;79.13;96894.78;1739605;82;25714;-84
2021/08/29 02:18:14;;;;;;;9.40;7.25;;;;;;;12.68;79.07;96893.09;1733155;81;25753;-83
2021/08/29 02:20:41;;;;;;;10.75;8.18;;;;;;;12.66;79.10;96885.73;1736188;82;25315;-85
2021/08/29 02:23:08;;;;;;;7.35;6.50;;;;;;;12.63;79.08;96890.56;1737146;82;27314;-83
2021/08/29 02:25:35;;;;;;;10.53;7.37;;;;;;;12.61;79.05;96884.55;1714425;82;25776;-85
2021/08/29 02:28:02;;;;;;;8.53;7.60;;;;;;;12.59;79.04;96883.13;1724455;82;25698;-85
2021/08/29 02:30:29;;;;;;;11.53;8.03;;;;;;;12.56;79.00;96890.36;1726975;82;25552;-85
2021/08/29 02:32:56;;;;;;;14.87;10.25;;;;;;;12.53;79.03;96881.39;1735218;82;25675;-85
2021/08/29 02:35:23;;;;;;;17.23;9.68;;;;;;;12.52;79.10;96883.27;1738124;82;27529;-81
2021/08/29 02:37:50;;;;;;;15.38;8.78;;;;;;;12.50;79.17;96884.03;1730981;82;25739;-84
2021/08/29 02:40:18;;;;;;;14.60;9.03;;;;;;;12.48;79.19;96879.38;1737687;81;26469;-86
2021/08/29 02:42:46;;;;;;;15.35;9.70;;;;;;;12.41;79.10;96888.69;1719124;82;25807;-84
2021/08/29 02:45:14;;;;;;;16.40;8.65;;;;;;;12.38;79.24;96889.97;1734070;82;25951;-85
2021/08/29 02:47:41;;;;;;;12.10;8.15;;;;;;;12.39;79.32;96892.98;1710985;82;27299;-83
2021/08/29 02:50:09;;;;;;;9.45;6.80;;;;;;;12.41;79.39;96889.51;1745701;81;25704;-84
2021/08/29 02:52:41;;;;;;;13.35;8.95;;;;;;;12.42;79.42;96887.62;1740855;82;26377;-84
2021/08/29 02:55:09;;;;;;;13.70;7.50;;;;;;;12.41;79.45;96881.39;1721027;82;26384;-84
2021/08/29 02:57:37;;;;;;;12.28;7.85;;;;;;;12.42;79.55;96898.45;1708407;82;25799;-85
2021/08/29 03:00:05;;;;;;;14.75;7.75;;;;;;;12.40;79.61;96889.22;1725096;82;27382;-85
2021/08/29 03:02:32;;;;;;;13.05;7.90;;;;;;;12.41;79.64;96886.80;1701420;82;25800;-85
2021/08/29 03:04:59;;;;;;;18.57;8.58;;;;;;;12.45;79.61;96887.13;1717039;82;25758;-85
2021/08/29 03:07:26;;;;;;;13.98;8.73;;;;;;;12.44;79.68;96883.60;1743735;82;25680;-84
2021/08/29 03:09:53;;;;;;;14.33;8.88;;;;;;;12.46;79.71;96880.14;1731857;82;25795;-85
2021/08/29 03:12:20;;;;;;;14.33;9.33;;;;;;;12.50;79.73;96882.67;1726995;81;27362;-85
2021/08/29 03:14:47;;;;;;;12.80;8.40;;;;;;;12.53;79.72;96876.80;1746620;82;25691;-83
2021/08/29 03:17:14;;;;;;;13.05;8.98;;;;;;;12.56;79.69;96867.36;1746679;82;25786;-84
2021/08/29 03:19:44;;;;;;;19.48;10.85;;;;;;;12.57;79.70;96860.35;1746590;82;26705;-86
2021/08/29 03:22:12;;;;;;;32.75;13.72;;;;;;;12.59;79.66;96856.06;1746868;81;25713;-84
2021/08/29 03:24:39;;;;;;;30.37;13.13;;;;;;;12.59;79.65;96858.23;1729462;81;27319;-86
2021/08/29 03:27:07;;;;;;;26.73;12.68;;;;;;;12.59;79.66;96858.77;1720024;82;25339;-82
2021/08/29 03:29:34;;;;;;;26.12;12.37;;;;;;;12.58;79.71;96866.06;1731829;81;25871;-85
2021/08/29 03:32:00;;;;;;;28.75;12.50;;;;;;;12.54;79.67;96864.09;1738449;82;26149;-83
2021/08/29 03:34:30;;;;;;;25.30;10.82;;;;;;;12.52;79.81;96867.02;1734601;81;25706;-83
2021/08/29 03:36:57;;;;;;;24.60;10.93;;;;;;;12.53;79.92;96869.20;1736453;82;28199;-85
2021/08/29 03:39:28;;;;;;;17.52;11.08;;;;;;;12.52;79.96;96872.44;1723714;81;26373;-82
2021/08/29 03:41:58;;;;;;;15.03;9.75;;;;;;;12.51;80.01;96876.20;1714569;82;25770;-85
2021/08/29 03:44:27;;;;;;;20.60;9.63;;;;;;;12.51;80.10;96878.91;1746828;82;26026;-85
2021/08/29 03:46:54;;;;;;;16.48;11.70;;;;;;;12.52;80.17;96875.15;1722401;82;25762;-83
2021/08/29 03:49:22;;;;;;;15.20;12.10;;;;;;;12.54;80.19;96876.27;1729800;82;28507;-84
2021/08/29 03:51:49;;;;;;;17.77;12.70;;;;;;;12.56;80.16;96873.59;1724399;82;25776;-83
2021/08/29 03:54:16;;;;;;;22.60;13.53;;;;;;;12.57;80.22;96877.95;1716974;82;25738;-84
2021/08/29 03:56:43;;;;;;;18.87;13.35;;;;;;;12.60;80.28;96876.13;1717045;82;26367;-84
2021/08/29 03:59:10;;;;;;;18.80;13.72;;;;;;;12.61;80.29;96874.25;1742445;82;25742;-81
2021/08/29 04:01:37;;;;;;;17.98;12.73;;;;;;;12.61;80.28;96881.84;1740965;81;27407;-85
2021/08/29 04:04:04;;;;;;;15.72;12.18;;;;;;;12.61;80.24;96873.72;1708717;82;25793;-84
2021/08/29 04:06:35;;;;;;;16.45;12.03;;;;;;;12.60;80.28;96868.01;1717481;82;26148;-86
2021/08/29 04:09:07;;;;;;;17.23;12.43;;;;;;;12.60;80.29;96869.36;1719800;82;25835;-85
2021/08/29 04:11:35;;;;;;;13.50;10.85;;;;;;;12.63;80.31;96878.91;1732283;82;25823;-85
2021/08/29 04:14:02;;;;;;;14.30;11.08;;;;;;;12.62;80.30;96869.95;1752074;81;27374;-83
2021/08/29 04:16:29;;;;;;;15.72;11.38;;;;;;;12.63;80.28;96868.89;1726354;81;26124;-85
2021/08/29 04:18:59;;;;;;;12.73;10.30;;;;;;;12.63;80.36;96865.36;1749371;81;25712;-84
2021/08/29 04:21:27;;;;;;;12.55;10.08;;;;;;;12.62;80.39;96860.48;1726037;81;26371;-83
2021/08/29 04:23:54;;;;;;;13.22;10.38;;;;;;;12.61;80.30;96852.06;1735746;82;26096;-84
2021/08/29 04:26:21;;;;;;;14.47;11.40;;;;;;;12.62;80.33;96859.13;1728582;82;27425;-84
2021/08/29 04:28:48;;;;;;;14.95;11.20;;;;;;;12.62;80.40;96847.47;1731800;82;25888;-84
2021/08/29 04:31:20;;;;;;;14.70;10.90;;;;;;;12.63;80.40;96856.71;1729206;82;26415;-84
2021/08/29 04:33:46;;;;;;;12.82;10.25;;;;;;;12.64;80.34;96853.47;1719133;82;25705;-84
2021/08/29 04:36:13;;;;;;;14.10;11.18;;;;;;;12.62;80.42;96853.70;1728335;82;25782;-85
2021/08/29 04:38:40;;;;;;;16.75;11.18;;;;;;;12.62;80.46;96846.12;1738478;79;28467;-83
2021/08/29 04:41:06;;;;;;;16.17;10.90;;;;;;;12.62;80.42;96852.35;1718981;83;26324;-84
2021/08/29 04:43:33;;;;;;;16.17;11.33;;;;;;;12.62;80.42;96851.00;1735706;82;25749;-85
2021/08/29 04:46:00;;;;;;;12.82;10.00;;;;;;;12.61;80.51;96858.00;1735638;82;25869;-85
2021/08/29 04:48:26;;;;;;;14.95;9.38;;;;;;;12.59;80.54;96862.30;1729280;82;25793;-83
2021/08/29 04:50:54;;;;;;;31.15;15.72;;;;;;;12.58;80.62;96860.64;1735403;81;27348;-84
2021/08/29 04:53:20;;;;;;;27.37;15.23;;;;;;;12.61;80.68;96858.83;1735328;82;25778;-85
2021/08/29 04:55:47;;;;;;;31.07;15.78;;;;;;;12.63;80.66;96862.13;1735822;82;26354;-85
2021/08/29 04:58:14;;;;;;;30.88;14.83;;;;;;;12.66;80.70;96867.61;1724751;82;25726;-84
2021/08/29 05:00:40;;;;;;;31.25;14.93;;;;;;;12.67;80.74;96861.66;1729596;81;25756;-84
2021/08/29 05:03:07;;;;;;;20.72;11.97;;;;;;;12.67;80.71;96865.72;1735959;82;27538;-85
2021/08/29 05:05:34;;;;;;;19.57;11.93;;;;;;;12.69;80.79;96866.28;1717751;82;26595;-84
2021/08/29 05:08:00;;;;;;;22.45;13.03;;;;;;;12.70;80.74;96864.70;1732311;82;25814;-85
2021/08/29 05:10:27;;;;;;;19.20;12.35;;;;;;;12.70;80.69;96867.41;1735893;82;25759;-84
2021/08/29 05:12:53;;;;;;;16.25;11.50;;;;;;;12.72;80.74;96872.58;1735540;82;26349;-86
2021/08/29 05:15:20;;;;;;;13.90;10.18;;;;;;;12.72;80.72;96872.58;1733390;82;27438;-86
2021/08/29 05:17:47;;;;;;;13.70;10.70;;;;;;;12.71;80.70;96870.94;1747212;82;25790;-85
2021/08/29 05:20:13;;;;;;;16.42;11.55;;;;;;;12.69;80.74;96868.46;1747062;82;26316;-85
2021/08/29 05:22:40;;;;;;;16.05;10.68;;;;;;;12.73;80.75;96875.59;1751072;81;25752;-82
2021/08/29 05:25:08;;;;;;;13.45;10.15;;;;;;;12.74;80.85;96867.76;1754674;81;25784;-84
2021/08/29 05:27:35;;;;;;;12.33;10.18;;;;;;;12.72;80.86;96876.12;1754797;81;26829;-86
2021/08/29 05:30:01;;;;;;;14.53;9.90;;;;;;;12.71;80.76;96872.29;1755029;81;25718;-85
2021/08/29 05:32:28;;;;;;;11.35;9.38;;;;;;;12.72;80.77;96878.00;1733896;81;26473;-85
2021/08/29 05:34:54;;;;;;;10.38;9.28;;;;;;;12.74;80.85;96879.95;1755037;81;26152;-82
2021/08/29 05:37:21;;;;;;;11.45;8.65;;;;;;;12.76;80.65;96883.24;1754112;81;25739;-85
2021/08/29 05:39:48;;;;;;;9.13;8.08;;;;;;;12.77;80.69;96884.89;1730013;81;28242;-85
2021/08/29 05:42:14;;;;;;;12.20;9.45;;;;;;;12.76;80.69;96878.66;1734676;81;25786;-85
2021/08/29 05:44:41;;;;;;;10.80;9.13;;;;;;;12.81;80.69;96880.62;1748186;81;25801;-85
2021/08/29 05:47:07;;;;;;;12.03;9.45;;;;;;;12.84;80.66;96877.45;1751268;81;25734;-86
2021/08/29 05:49:34;;;;;;;12.88;9.40;;;;;;;12.85;80.55;96877.22;1744848;80;25744;-85
2021/08/29 05:52:01;;;;;;;10.70;9.28;;;;;;;12.87;80.57;96879.69;1749831;81;27359;-85
2021/08/29 05:54:27;;;;;;;16.40;11.15;;;;;;;12.85;80.51;96875.86;1743646;81;25926;-85
2021/08/29 05:56:54;;;;;;;14.10;10.13;;;;;;;12.86;80.48;96875.33;1726282;81;25743;-85
2021/08/29 05:59:20;;;;;;;12.03;9.70;;;;;;;12.88;80.45;96876.75;1720827;82;25806;-85
2021/08/29 06:01:47;;;;;;;15.88;12.30;;;;;;;12.88;80.48;96870.51;1719604;82;25761;-85
2021/08/29 06:04:14;;;;;;;15.85;12.37;;;;;;;12.89;80.46;96869.45;1728810;82;27359;-83
2021/08/29 06:06:40;;;;;;;15.65;12.75;;;;;;;12.89;80.47;96866.73;1750018;81;25720;-85
2021/08/29 06:09:07;;;;;;;14.18;12.00;;;;;;;12.86;80.49;96861.80;1732530;82;25786;-84
2021/08/29 06:11:34;;;;;;;13.32;10.68;;;;;;;12.85;80.62;96855.55;1746656;81;26210;-82
2021/08/29 06:14:01;;;;;;;13.38;10.98;;;;;;;12.87;80.68;96856.67;1741632;81;25688;-86
2021/08/29 06:16:27;;;;;;;12.70;10.70;;;;;;;12.90;80.77;96851.61;1737177;82;27398;-85
2021/08/29 06:18:54;;;;;;;14.53;10.28;;;;;;;12.93;80.87;96845.69;1700889;83;25803;-86
2021/08/29 06:21:20;;;;;;;14.50;11.18;;;;;;;12.95;80.86;96852.22;1715181;82;25749;-86
2021/08/29 06:23:47;;;;;;;11.63;10.35;;;;;;;12.97;80.91;96846.86;1721949;83;25775;-85
2021/08/29 06:26:15;;;;;;;12.47;9.88;;;;;;;13.00;80.94;96846.92;1706506;83;26506;-86
2021/08/29 06:28:41;;;;;;;12.80;9.90;;;;;;;13.05;81.04;96847.00;1713681;83;27704;-87
2021/08/29 06:31:08;;;;;;;8.73;7.83;;;;;;;13.09;80.93;96852.25;1718741;82;25680;-85
2021/08/29 06:33:36;;;;;;;14.47;9.05;;;;;;;13.11;80.70;96848.77;1737688;82;25738;-88
2021/08/29 06:36:02;;;;;;;11.60;9.65;;;;;;;13.03;80.46;96852.40;1712209;83;25754;-85
2021/08/29 06:38:29;;;;;;;12.15;9.78;;;;;;;13.01;80.79;96858.58;1738300;82;25775;-84
2021/08/29 06:40:55;;;;;;;11.55;9.90;;;;;;;13.00;80.78;96855.05;1713690;83;28148;-82
2021/08/29 06:43:22;;;;;;;11.75;9.50;;;;;;;13.00;80.72;96853.69;1735311;82;26487;-87
2021/08/29 06:45:49;;;;;;;10.13;8.58;;;;;;;13.03;80.84;96847.80;1727450;82;25695;-85
2021/08/29 06:48:15;;;;;;;9.25;8.20;;;;;;;13.06;80.92;96843.23;1744955;82;26084;-86
2021/08/29 06:50:42;;;;;;;10.78;9.58;;;;;;;13.01;80.66;96843.15;1744892;82;25669;-84
2021/08/29 06:53:08;;;;;;;11.18;10.00;;;;;;;13.01;80.78;96832.31;1745072;82;27354;-84
2021/08/29 06:55:35;;;;;;;13.68;11.28;;;;;;;13.06;80.92;96837.81;1744975;82;25780;-85
2021/08/29 06:58:02;;;;;;;11.60;9.13;;;;;;;13.10;80.98;96838.16;1745058;82;25735;-85
2021/08/29 07:00:28;;;;;;;15.90;8.60;;;;;;;13.11;80.84;96837.93;1744987;81;25426;-85
2021/08/29 07:02:55;;;;;;;9.60;7.90;;;;;;;13.16;80.97;96832.63;1745013;82;25749;-86
2021/08/29 07:05:21;;;;;;;9.25;8.33;;;;;;;13.21;80.84;96832.73;1745049;82;28392;-85
2021/08/29 07:07:50;;;;;;;11.05;8.75;;;;;;;13.24;80.77;96830.08;1744556;82;44040;-86
2021/08/29 07:10:16;;;;;;;9.55;8.10;;;;;;;13.32;80.76;96825.61;1744863;81;26333;-87
2021/08/29 07:12:43;;;;;;;10.45;7.58;;;;;;;13.41;80.72;96830.10;1744896;81;26075;-85
2021/08/29 07:15:10;;;;;;;9.68;7.97;;;;;;;13.48;80.59;96825.38;1744810;81;25794;-83
2021/08/29 07:17:37;;;;;;;11.00;8.30;;;;;;;13.54;80.44;96821.14;1745106;82;27387;-85
2021/08/29 07:20:05;;;;;;;11.35;7.65;;;;;;;13.67;80.47;96830.86;1744962;82;25837;-86
2021/08/29 07:22:32;;;;;;;8.50;6.78;;;;;;;13.78;80.43;96826.42;1745017;82;25810;-90
2021/08/29 07:24:58;;;;;;;5.75;4.97;;;;;;;13.89;80.38;96829.06;1731032;82;25866;-85
2021/08/29 07:27:26;;;;;;;7.55;5.62;;;;;;;13.97;80.24;96835.98;1744998;82;25753;-86
2021/08/29 07:29:52;;;;;;;6.03;5.37;;;;;;;14.05;80.12;96836.39;1745054;82;28193;-84
2021/08/29 07:32:19;;;;;;;9.20;6.70;;;;;;;14.13;79.97;96837.06;1744892;82;25764;-87
2021/08/29 07:34:46;;;;;;;8.20;7.00;;;;;;;14.17;79.91;96825.45;1743048;82;25865;-86
2021/08/29 07:37:12;;;;;;;8.23;6.20;;;;;;;14.19;79.87;96828.73;1741453;82;26189;-85
2021/08/29 07:39:39;;;;;;;7.90;6.47;;;;;;;14.21;79.87;96829.85;1734323;82;25642;-86
2021/08/29 07:42:06;;;;;;;8.83;6.85;;;;;;;14.28;79.88;96822.34;1741062;82;28448;-85
2021/08/29 07:44:32;;;;;;;7.70;6.65;;;;;;;14.35;79.84;96822.48;1743439;82;26342;-86
2021/08/29 07:46:59;;;;;;;7.65;6.67;;;;;;;14.39;79.88;96825.50;1744326;82;25801;-82
2021/08/29 07:49:26;;;;;;;7.97;7.08;;;;;;;14.45;79.84;96823.72;1744554;81;25686;-83
2021/08/29 07:51:52;;;;;;;7.75;6.95;;;;;;;14.44;79.73;96825.61;1741967;82;26421;-85
2021/08/29 07:54:19;;;;;;;8.23;7.25;;;;;;;14.47;79.67;96821.05;1718147;83;27345;-83
2021/08/29 07:56:45;;;;;;;7.78;6.55;;;;;;;14.48;79.51;96825.41;1713121;83;25720;-86
2021/08/29 07:59:12;;;;;;;7.85;7.05;;;;;;;14.44;79.41;96823.44;1721416;83;25821;-86
2021/08/29 08:01:40;;;;;;;8.65;6.78;;;;;;;14.42;79.42;96827.75;1744128;82;25419;-84
2021/08/29 08:04:06;;;;;;;8.35;6.62;;;;;;;14.40;79.51;96828.00;1744768;82;25819;-82
2021/08/29 08:06:33;;;;;;;7.45;6.05;;;;;;;14.41;79.56;96831.53;1744730;82;27586;-86
2021/08/29 08:09:00;;;;;;;6.35;5.75;;;;;;;14.39;79.56;96835.00;1742755;82;26377;-83
2021/08/29 08:11:26;;;;;;;7.10;6.08;;;;;;;14.41;79.57;96836.44;1744989;82;25866;-80
2021/08/29 08:13:53;;;;;;;9.45;6.17;;;;;;;14.40;79.61;96837.50;1744865;81;26584;-85
2021/08/29 08:16:19;;;;;;;8.15;6.37;;;;;;;14.39;79.72;96835.86;1744866;81;26498;-84
2021/08/29 08:18:46;;;;;;;7.33;5.95;;;;;;;14.37;79.63;96833.89;1738092;82;27387;-83
2021/08/29 08:21:13;;;;;;;7.75;6.78;;;;;;;14.37;79.58;96832.53;1739792;82;25711;-83
2021/08/29 08:23:39;;;;;;;6.50;5.87;;;;;;;14.35;79.67;96832.52;1741298;82;25798;-82
2021/08/29 08:26:07;;;;;;;8.13;6.72;;;;;;;14.37;79.73;96827.09;1744854;82;25888;-83
2021/08/29 08:28:34;;;;;;;8.03;5.90;;;;;;;14.38;79.69;96832.81;1744861;82;25678;-82
2021/08/29 08:31:01;;;;;;;6.22;5.62;;;;;;;14.37;79.79;96834.42;1744964;82;28321;-83
2021/08/29 08:33:27;;;;;;;7.45;6.00;;;;;;;14.40;79.77;96835.32;1745017;81;26526;-79
2021/08/29 08:35:54;;;;;;;8.33;6.08;;;;;;;14.44;79.68;96841.91;1745046;82;26240;-82
2021/08/29 08:38:21;;;;;;;6.60;6.00;;;;;;;14.49;79.65;96840.61;1730049;82;26365;-81
2021/08/29 08:40:47;;;;;;;7.60;6.65;;;;;;;14.51;79.43;96845.25;1739017;82;25695;-81
2021/08/29 08:43:14;;;;;;;8.65;7.22;;;;;;;14.50;79.40;96842.78;1727368;81;28289;-83
2021/08/29 08:45:41;;;;;;;8.53;7.17;;;;;;;14.51;79.32;96839.83;1721124;81;25755;-84
2021/08/29 08:48:08;;;;;;;12.80;9.15;;;;;;;14.52;79.19;96841.47;1721185;82;25754;-84
2021/08/29 08:50:36;;;;;;;14.60;11.48;;;;;;;14.51;79.18;96844.43;1726807;82;26171;-81
2021/08/29 08:53:05;;;;;;;18.82;12.85;;;;;;;14.46;79.32;96850.63;1739725;82;25763;-81
2021/08/29 08:55:32;;;;;;;14.78;10.53;;;;;;;14.39;79.48;96845.36;1716485;82;27468;-82
2021/08/29 08:58:00;;;;;;;14.95;10.48;;;;;;;14.36;79.66;96845.02;1715098;82;25934;-84
2021/08/29 09:00:27;;;;;;;9.03;8.00;;;;;;;14.38;79.80;96842.86;1707658;81;25835;-84
2021/08/29 09:02:54;;;;;;;8.13;7.33;;;;;;;14.42;79.77;96844.05;1734984;82;25778;-85
2021/08/29 09:05:22;;;;;;;8.53;6.67;;;;;;;14.52;79.77;96843.36;1743920;82;25734;-86
2021/08/29 09:07:50;;;;;;;7.12;6.42;;;;;;;14.63;79.70;96844.61;1739693;82;28167;-87
2021/08/29 09:10:17;;;;;;;9.35;6.87;;;;;;;14.69;79.70;96844.98;1740921;82;25932;-84
2021/08/29 09:13:02;;;;;;;7.12;6.42;;;;;;;14.76;79.62;96845.61;1734794;82;26354;-85
2021/08/29 09:15:30;;;;;;;7.75;6.00;;;;;;;14.84;79.32;96850.34;1741304;81;26215;-85
2021/08/29 09:17:58;;;;;;;7.65;5.85;;;;;;;14.92;79.24;96845.82;1737611;82;25741;-83
2021/08/29 09:20:39;;;;;;;6.80;5.97;;;;;;;15.00;79.18;96837.22;1744817;82;27355;-84
2021/08/29 09:23:10;;;;;;;7.72;6.78;;;;;;;15.08;79.14;96844.95;1742626;82;25777;-85
2021/08/29 09:25:40;;;;;;;8.48;6.37;;;;;;;15.07;79.20;96841.94;1742527;82;26371;-86
2021/08/29 09:28:16;;;;;;;7.08;5.97;;;;;;;15.12;79.37;96839.27;1740298;81;26382;-87
2021/08/29 09:30:46;;;;;;;6.55;5.42;;;;;;;15.20;79.22;96838.84;1739383;81;25734;-83
2021/08/29 09:33:14;;;;;;;6.30;5.60;;;;;;;15.27;78.88;96844.89;1725788;81;27428;-84
2021/08/29 09:35:40;;;;;;;7.17;5.87;;;;;;;15.22;78.43;96842.10;1738901;80;25714;-84
2021/08/29 09:38:15;;;;;;;8.70;6.00;;;;;;;15.23;78.69;96834.77;1732650;82;25556;-81
2021/08/29 09:40:42;;;;;;;7.12;5.50;;;;;;;15.28;78.69;96837.02;1744401;81;25717;-84
2021/08/29 09:43:09;;;;;;;6.53;5.92;;;;;;;15.33;78.56;96833.01;1742789;82;25706;-84
2021/08/29 09:45:41;;;;;;;10.88;6.03;;;;;;;15.35;78.41;96831.37;1738302;82;28263;-83
2021/08/29 09:48:14;;;;;;;8.63;5.85;;;;;;;15.30;78.37;96826.72;1734071;81;32958;-83
2021/08/29 09:50:45;;;;;;;6.95;6.00;;;;;;;15.31;78.48;96827.00;1738015;82;25281;-82
2021/08/29 09:53:15;;;;;;;6.20;5.58;;;;;;;15.34;78.37;96826.47;1740596;82;25743;-83
2021/08/29 09:55:44;;;;;;;10.63;5.87;;;;;;;15.33;78.36;96825.39;1744844;82;25631;-84
2021/08/29 09:58:34;;;;;;;6.78;5.70;;;;;;;15.33;78.24;96826.21;1745548;82;28172;-83
2021/08/29 10:01:12;;;;;;;6.70;5.83;;;;;;;15.28;78.00;96816.63;1727302;80;26586;-83
2021/08/29 10:03:52;;;;;;;6.03;5.47;;;;;;;15.35;78.01;96826.75;1742706;82;25715;-83
2021/08/29 10:06:25;;;;;;;8.68;6.33;;;;;;;15.38;77.98;96831.69;1745104;82;25766;-83
2021/08/29 10:08:55;;;;;;;7.25;5.85;;;;;;;15.42;77.93;96831.47;1739152;81;25703;-84
2021/08/29 10:11:23;;;;;;;7.42;5.90;;;;;;;15.41;77.86;96828.47;1736976;82;27474;-83
2021/08/29 10:13:51;;;;;;;7.17;6.47;;;;;;;15.41;77.94;96831.72;1743831;82;25808;-80
2021/08/29 10:16:22;;;;;;;11.22;7.80;;;;;;;15.40;77.82;96825.45;1738730;82;25778;-84
2021/08/29 10:18:51;;;;;;;8.23;6.70;;;;;;;15.38;77.76;96824.89;1743876;82;26334;-86
2021/08/29 10:21:23;;;;;;;8.33;6.62;;;;;;;15.28;77.69;96826.14;1737186;82;25750;-85
2021/08/29 10:23:55;;;;;;;9.78;7.75;;;;;;;15.29;78.12;96826.97;1735911;81;27597;-83
2021/08/29 10:26:24;;;;;;;11.93;8.30;;;;;;;15.33;78.16;96824.03;1739828;82;25847;-84
2021/08/29 10:29:07;;;;;;;10.70;8.65;;;;;;;15.41;77.96;96835.27;1737795;81;25771;-84
2021/08/29 10:31:55;;;;;;;8.98;7.47;;;;;;;15.48;78.00;96823.63;1734811;80;26410;-85
2021/08/29 10:34:22;;;;;;;8.20;6.87;;;;;;;15.61;78.21;96821.61;1740891;82;26297;-85
2021/08/29 10:36:49;;;;;;;9.38;8.38;;;;;;;15.71;78.21;96814.90;1745584;82;27495;-87
2021/08/29 10:39:17;;;;;;;9.53;8.40;;;;;;;15.75;78.21;96813.31;1745841;82;25957;-84
2021/08/29 10:41:44;;;;;;;10.10;8.80;;;;;;;15.79;77.80;96809.00;1738201;82;25297;-85
2021/08/29 10:44:15;;;;;;;10.55;7.95;;;;;;;15.87;77.73;96809.06;1730556;81;25715;-86
2021/08/29 10:46:46;;;;;;;9.90;8.90;;;;;;;15.90;77.10;96809.38;1743205;82;25233;-85
2021/08/29 10:49:15;;;;;;;13.35;9.23;;;;;;;15.94;76.54;96804.23;1741062;80;27360;-85
2021/08/29 10:51:46;;;;;;;12.03;8.63;;;;;;;15.98;76.70;96804.80;1738994;80;25837;-86
2021/08/29 10:54:14;;;;;;;9.25;8.00;;;;;;;16.08;76.75;96808.14;1749578;80;25787;-85
2021/08/29 10:56:42;;;;;;;10.25;8.83;;;;;;;16.15;76.54;96804.12;1734354;81;25725;-87
2021/08/29 10:59:14;;;;;;;9.05;8.15;;;;;;;16.23;76.54;96804.72;1734946;81;25771;-88
2021/08/29 11:01:44;;;;;;;10.20;9.18;;;;;;;16.33;76.47;96798.80;1734907;82;28472;-88
2021/08/29 11:04:27;;;;;;;9.95;8.90;;;;;;;16.45;76.20;96797.23;1713941;82;26472;-86
2021/08/29 11:07:03;;;;;;;9.78;7.87;;;;;;;16.60;76.35;96797.33;1724663;82;25812;-90
2021/08/29 11:09:40;;;;;;;12.33;8.28;;;;;;;16.75;75.97;96792.00;1746350;81;25871;-90
2021/08/29 11:12:19;;;;;;;9.58;8.38;;;;;;;16.80;75.41;96785.19;1752151;81;25687;-90
2021/08/29 11:14:51;;;;;;;9.73;7.95;;;;;;;16.91;75.33;96787.41;1751960;81;27349;-88
2021/08/29 11:17:26;;;;;;;7.92;6.70;;;;;;;16.92;74.77;96789.88;1751908;80;25723;-88
2021/08/29 11:19:57;;;;;;;7.15;6.08;;;;;;;16.97;74.88;96785.00;1751961;80;25742;-88
2021/08/29 11:22:26;;;;;;;9.60;6.40;;;;;;;17.12;74.67;96780.14;1749450;80;25655;-89
2021/08/29 11:25:24;;;;;;;6.65;5.65;;;;;;;17.28;74.32;96782.63;1752021;81;25786;-89
2021/08/29 11:28:03;;;;;;;7.55;6.00;;;;;;;17.47;74.18;96780.23;1752008;81;27402;-87
2021/08/29 11:30:40;;;;;;;7.87;6.22;;;;;;;17.53;73.24;96786.50;1732801;81;25836;-85
2021/08/29 11:33:11;;;;;;;7.45;6.53;;;;;;;17.54;73.05;96778.59;1752088;81;25753;-88